New Riegel, Ohio
Current Conditions -  °F | °C
As of 10:53 AM on Thursday 30 Oct 2014 (Local Time) from KFDY Reporting Station
Clear Clear  
Wind Chill: 47°   Ceiling: Unl
Heat Index: 47°   Visibility: 10mi
Dew Point: 37°   Wind: 0mph
Humidity: 68%   Direction: NA
Pressure: 30.15"   Gusts: NA
Location:  41.05°N, 83.32°W
Report Text: KFDY 301453Z AUTO 00000KT 10SM CLR 08/03 A3015 RMK AO2 SLP211 T00830028 50008
Loading
Personal Weather Stations






























Interactive Weather Map
Tropical Storm Tracking
New forecast layout! Learn more

10-Day Weather Forecast

Advertisements
Track Severe Weather on mobile